sensor_id;sensor_type;location;lat;lon;timestamp;P1;durP1;ratioP1;P2;durP2;ratioP2
58659;SDS011;44429;45.110;20.622;2023-03-03T00:01:09;2.17;;;1.25;;
58659;SDS011;44429;45.110;20.622;2023-03-03T00:03:35;2.78;;;1.75;;
58659;SDS011;44429;45.110;20.622;2023-03-03T00:06:02;0.30;;;0.20;;
58659;SDS011;44429;45.110;20.622;2023-03-03T00:08:28;1.25;;;0.70;;
58659;SDS011;44429;45.110;20.622;2023-03-03T00:10:55;5.07;;;1.85;;
58659;SDS011;44429;45.110;20.622;2023-03-03T00:13:23;3.45;;;1.13;;
58659;SDS011;44429;45.110;20.622;2023-03-03T00:15:49;3.38;;;0.88;;
58659;SDS011;44429;45.110;20.622;2023-03-03T00:20:55;3.90;;;1.55;;
58659;SDS011;44429;45.110;20.622;2023-03-03T00:23:34;2.28;;;1.10;;
58659;SDS011;44429;45.110;20.622;2023-03-03T00:26:00;6.05;;;0.65;;
58659;SDS011;44429;45.110;20.622;2023-03-03T00:28:46;4.93;;;0.55;;
58659;SDS011;44429;45.110;20.622;2023-03-03T00:31:25;2.13;;;0.77;;
58659;SDS011;44429;45.110;20.622;2023-03-03T00:33:53;5.65;;;0.63;;
58659;SDS011;44429;45.110;20.622;2023-03-03T00:39:10;6.18;;;1.55;;
58659;SDS011;44429;45.110;20.622;2023-03-03T00:41:42;0.52;;;0.25;;
58659;SDS011;44429;45.110;20.622;2023-03-03T00:46:53;0.98;;;0.50;;
58659;SDS011;44429;45.110;20.622;2023-03-03T00:49:21;0.35;;;0.20;;
58659;SDS011;44429;45.110;20.622;2023-03-03T00:51:49;2.70;;;0.95;;
58659;SDS011;44429;45.110;20.622;2023-03-03T00:54:15;1.13;;;0.50;;
58659;SDS011;44429;45.110;20.622;2023-03-03T00:56:41;2.50;;;0.88;;
58659;SDS011;44429;45.110;20.622;2023-03-03T00:59:07;4.40;;;1.08;;
58659;SDS011;44429;45.110;20.622;2023-03-03T01:01:34;1.30;;;0.55;;
58659;SDS011;44429;45.110;20.622;2023-03-03T01:04:00;2.00;;;0.65;;
58659;SDS011;44429;45.110;20.622;2023-03-03T01:06:26;1.67;;;0.65;;
58659;SDS011;44429;45.110;20.622;2023-03-03T01:08:52;2.50;;;1.33;;
58659;SDS011;44429;45.110;20.622;2023-03-03T01:11:22;1.45;;;0.65;;
58659;SDS011;44429;45.110;20.622;2023-03-03T01:13:49;4.95;;;1.55;;
58659;SDS011;44429;45.110;20.622;2023-03-03T01:16:15;1.85;;;0.77;;
58659;SDS011;44429;45.110;20.622;2023-03-03T01:18:41;1.10;;;0.52;;
58659;SDS011;44429;45.110;20.622;2023-03-03T01:21:08;0.47;;;0.20;;
58659;SDS011;44429;45.110;20.622;2023-03-03T01:23:34;0.28;;;0.08;;
58659;SDS011;44429;45.110;20.622;2023-03-03T01:26:01;4.70;;;1.90;;
58659;SDS011;44429;45.110;20.622;2023-03-03T01:28:27;0.55;;;0.20;;
58659;SDS011;44429;45.110;20.622;2023-03-03T01:30:53;0.85;;;0.30;;
58659;SDS011;44429;45.110;20.622;2023-03-03T01:33:19;3.72;;;1.08;;
58659;SDS011;44429;45.110;20.622;2023-03-03T01:35:46;0.10;;;0.05;;
58659;SDS011;44429;45.110;20.622;2023-03-03T01:38:12;3.20;;;0.70;;
58659;SDS011;44429;45.110;20.622;2023-03-03T01:40:38;1.13;;;0.85;;
58659;SDS011;44429;45.110;20.622;2023-03-03T01:43:05;0.90;;;0.40;;
58659;SDS011;44429;45.110;20.622;2023-03-03T01:50:45;1.00;;;0.40;;
58659;SDS011;44429;45.110;20.622;2023-03-03T01:53:19;1.45;;;0.88;;
58659;SDS011;44429;45.110;20.622;2023-03-03T01:55:47;0.52;;;0.38;;
58659;SDS011;44429;45.110;20.622;2023-03-03T01:58:35;1.48;;;0.65;;
58659;SDS011;44429;45.110;20.622;2023-03-03T02:01:04;1.55;;;0.73;;
58659;SDS011;44429;45.110;20.622;2023-03-03T02:03:32;1.27;;;0.60;;
58659;SDS011;44429;45.110;20.622;2023-03-03T02:05:59;2.78;;;0.35;;
58659;SDS011;44429;45.110;20.622;2023-03-03T02:08:30;2.30;;;0.90;;
58659;SDS011;44429;45.110;20.622;2023-03-03T02:11:01;9.48;;;1.92;;
58659;SDS011;44429;45.110;20.622;2023-03-03T02:13:28;0.98;;;0.38;;
58659;SDS011;44429;45.110;20.622;2023-03-03T02:15:54;1.92;;;1.00;;
58659;SDS011;44429;45.110;20.622;2023-03-03T02:18:20;1.05;;;0.52;;
58659;SDS011;44429;45.110;20.622;2023-03-03T02:28:29;1.35;;;0.50;;
58659;SDS011;44429;45.110;20.622;2023-03-03T02:30:56;0.73;;;0.40;;
58659;SDS011;44429;45.110;20.622;2023-03-03T02:33:22;1.75;;;0.55;;
58659;SDS011;44429;45.110;20.622;2023-03-03T02:35:48;1.15;;;0.17;;
58659;SDS011;44429;45.110;20.622;2023-03-03T02:38:17;1.35;;;0.47;;
58659;SDS011;44429;45.110;20.622;2023-03-03T02:41:06;2.15;;;0.75;;
58659;SDS011;44429;45.110;20.622;2023-03-03T02:43:39;5.28;;;0.95;;
58659;SDS011;44429;45.110;20.622;2023-03-03T02:46:07;1.40;;;0.43;;
58659;SDS011;44429;45.110;20.622;2023-03-03T02:48:33;2.38;;;0.70;;
58659;SDS011;44429;45.110;20.622;2023-03-03T02:50:59;1.45;;;0.47;;
58659;SDS011;44429;45.110;20.622;2023-03-03T02:53:25;1.00;;;0.57;;
58659;SDS011;44429;45.110;20.622;2023-03-03T02:55:51;0.28;;;0.20;;
58659;SDS011;44429;45.110;20.622;2023-03-03T02:58:18;0.75;;;0.40;;
58659;SDS011;44429;45.110;20.622;2023-03-03T03:00:44;1.65;;;0.30;;
58659;SDS011;44429;45.110;20.622;2023-03-03T03:03:12;1.33;;;0.50;;
58659;SDS011;44429;45.110;20.622;2023-03-03T03:05:38;0.35;;;0.17;;
58659;SDS011;44429;45.110;20.622;2023-03-03T03:08:04;0.93;;;0.32;;
58659;SDS011;44429;45.110;20.622;2023-03-03T03:10:30;8.43;;;1.15;;
58659;SDS011;44429;45.110;20.622;2023-03-03T03:12:56;3.78;;;0.55;;
58659;SDS011;44429;45.110;20.622;2023-03-03T03:15:22;0.63;;;0.38;;
58659;SDS011;44429;45.110;20.622;2023-03-03T03:17:48;4.18;;;0.70;;
58659;SDS011;44429;45.110;20.622;2023-03-03T03:20:15;0.63;;;0.38;;
58659;SDS011;44429;45.110;20.622;2023-03-03T03:22:42;1.65;;;0.32;;
58659;SDS011;44429;45.110;20.622;2023-03-03T03:25:08;1.08;;;0.38;;
58659;SDS011;44429;45.110;20.622;2023-03-03T03:27:34;3.97;;;0.90;;
58659;SDS011;44429;45.110;20.622;2023-03-03T03:30:00;1.38;;;0.35;;
58659;SDS011;44429;45.110;20.622;2023-03-03T03:32:26;1.08;;;0.52;;
58659;SDS011;44429;45.110;20.622;2023-03-03T03:34:53;1.00;;;0.30;;
58659;SDS011;44429;45.110;20.622;2023-03-03T03:37:19;2.40;;;0.55;;
58659;SDS011;44429;45.110;20.622;2023-03-03T03:39:45;0.73;;;0.35;;
58659;SDS011;44429;45.110;20.622;2023-03-03T03:42:11;0.70;;;0.32;;
58659;SDS011;44429;45.110;20.622;2023-03-03T03:44:37;1.58;;;0.80;;
58659;SDS011;44429;45.110;20.622;2023-03-03T03:47:03;1.58;;;0.77;;
58659;SDS011;44429;45.110;20.622;2023-03-03T03:49:29;0.20;;;0.13;;
58659;SDS011;44429;45.110;20.622;2023-03-03T03:51:55;0.88;;;0.47;;
58659;SDS011;44429;45.110;20.622;2023-03-03T03:54:21;2.47;;;0.88;;
58659;SDS011;44429;45.110;20.622;2023-03-03T03:56:47;3.67;;;1.10;;
58659;SDS011;44429;45.110;20.622;2023-03-03T03:59:13;2.72;;;1.58;;
58659;SDS011;44429;45.110;20.622;2023-03-03T04:01:39;0.95;;;0.50;;
58659;SDS011;44429;45.110;20.622;2023-03-03T04:04:05;1.92;;;1.48;;
58659;SDS011;44429;45.110;20.622;2023-03-03T04:06:31;1.45;;;0.95;;
58659;SDS011;44429;45.110;20.622;2023-03-03T04:08:57;3.92;;;1.90;;
58659;SDS011;44429;45.110;20.622;2023-03-03T04:11:23;4.32;;;0.77;;
58659;SDS011;44429;45.110;20.622;2023-03-03T04:13:49;6.43;;;1.35;;
58659;SDS011;44429;45.110;20.622;2023-03-03T04:16:16;1.25;;;1.08;;
58659;SDS011;44429;45.110;20.622;2023-03-03T04:18:42;2.03;;;1.33;;
58659;SDS011;44429;45.110;20.622;2023-03-03T04:21:15;0.08;;;0.05;;
58659;SDS011;44429;45.110;20.622;2023-03-03T04:23:41;1.42;;;0.60;;
58659;SDS011;44429;45.110;20.622;2023-03-03T04:26:07;1.42;;;1.05;;
58659;SDS011;44429;45.110;20.622;2023-03-03T04:28:34;6.28;;;1.92;;
58659;SDS011;44429;45.110;20.622;2023-03-03T04:31:00;1.38;;;0.85;;
58659;SDS011;44429;45.110;20.622;2023-03-03T04:33:27;0.47;;;0.22;;
58659;SDS011;44429;45.110;20.622;2023-03-03T04:35:53;0.52;;;0.13;;
58659;SDS011;44429;45.110;20.622;2023-03-03T04:38:19;0.95;;;0.38;;
58659;SDS011;44429;45.110;20.622;2023-03-03T04:40:45;1.42;;;0.73;;
58659;SDS011;44429;45.110;20.622;2023-03-03T04:43:11;0.32;;;0.20;;
58659;SDS011;44429;45.110;20.622;2023-03-03T04:45:37;5.45;;;1.17;;
58659;SDS011;44429;45.110;20.622;2023-03-03T04:48:04;7.25;;;1.05;;
58659;SDS011;44429;45.110;20.622;2023-03-03T04:50:30;3.42;;;0.98;;
58659;SDS011;44429;45.110;20.622;2023-03-03T04:52:56;0.57;;;0.45;;
58659;SDS011;44429;45.110;20.622;2023-03-03T04:55:22;2.53;;;0.90;;
58659;SDS011;44429;45.110;20.622;2023-03-03T04:57:48;7.13;;;2.83;;
58659;SDS011;44429;45.110;20.622;2023-03-03T05:00:14;0.22;;;0.13;;
58659;SDS011;44429;45.110;20.622;2023-03-03T05:02:40;1.08;;;0.40;;
58659;SDS011;44429;45.110;20.622;2023-03-03T05:05:07;5.82;;;1.63;;
58659;SDS011;44429;45.110;20.622;2023-03-03T05:07:34;3.42;;;1.10;;
58659;SDS011;44429;45.110;20.622;2023-03-03T05:10:01;1.88;;;1.38;;
58659;SDS011;44429;45.110;20.622;2023-03-03T05:12:27;1.17;;;0.40;;
58659;SDS011;44429;45.110;20.622;2023-03-03T05:14:53;8.43;;;3.25;;
58659;SDS011;44429;45.110;20.622;2023-03-03T05:17:19;7.80;;;3.40;;
58659;SDS011;44429;45.110;20.622;2023-03-03T05:19:45;2.60;;;1.13;;
58659;SDS011;44429;45.110;20.622;2023-03-03T05:22:11;3.38;;;0.80;;
58659;SDS011;44429;45.110;20.622;2023-03-03T05:24:37;2.30;;;1.60;;
58659;SDS011;44429;45.110;20.622;2023-03-03T05:27:03;5.18;;;1.55;;
58659;SDS011;44429;45.110;20.622;2023-03-03T05:29:30;1.75;;;1.40;;
58659;SDS011;44429;45.110;20.622;2023-03-03T05:31:57;22.30;;;5.63;;
58659;SDS011;44429;45.110;20.622;2023-03-03T05:34:23;3.00;;;0.77;;
58659;SDS011;44429;45.110;20.622;2023-03-03T05:36:49;2.72;;;0.77;;
58659;SDS011;44429;45.110;20.622;2023-03-03T05:39:15;7.30;;;1.00;;
58659;SDS011;44429;45.110;20.622;2023-03-03T05:41:41;2.85;;;1.88;;
58659;SDS011;44429;45.110;20.622;2023-03-03T05:44:08;5.45;;;1.35;;
58659;SDS011;44429;45.110;20.622;2023-03-03T05:46:34;7.10;;;2.70;;
58659;SDS011;44429;45.110;20.622;2023-03-03T05:49:00;3.92;;;1.23;;
58659;SDS011;44429;45.110;20.622;2023-03-03T05:51:26;6.28;;;2.00;;
58659;SDS011;44429;45.110;20.622;2023-03-03T05:53:52;2.97;;;1.55;;
58659;SDS011;44429;45.110;20.622;2023-03-03T05:56:18;5.80;;;1.98;;
58659;SDS011;44429;45.110;20.622;2023-03-03T05:58:44;4.47;;;1.52;;
58659;SDS011;44429;45.110;20.622;2023-03-03T06:01:11;3.75;;;1.67;;
58659;SDS011;44429;45.110;20.622;2023-03-03T06:03:37;7.32;;;1.98;;
58659;SDS011;44429;45.110;20.622;2023-03-03T06:06:03;2.45;;;1.05;;
58659;SDS011;44429;45.110;20.622;2023-03-03T06:08:29;2.92;;;0.73;;
58659;SDS011;44429;45.110;20.622;2023-03-03T06:10:56;0.80;;;0.47;;
58659;SDS011;44429;45.110;20.622;2023-03-03T06:13:22;3.88;;;1.13;;
58659;SDS011;44429;45.110;20.622;2023-03-03T06:15:48;2.60;;;1.42;;
58659;SDS011;44429;45.110;20.622;2023-03-03T06:18:14;5.57;;;1.38;;
58659;SDS011;44429;45.110;20.622;2023-03-03T06:20:40;1.30;;;0.65;;
58659;SDS011;44429;45.110;20.622;2023-03-03T06:23:06;1.65;;;0.75;;
58659;SDS011;44429;45.110;20.622;2023-03-03T06:25:33;2.40;;;1.25;;
58659;SDS011;44429;45.110;20.622;2023-03-03T06:28:00;0.55;;;0.28;;
58659;SDS011;44429;45.110;20.622;2023-03-03T06:30:26;3.72;;;1.77;;
58659;SDS011;44429;45.110;20.622;2023-03-03T06:32:52;2.15;;;0.65;;
58659;SDS011;44429;45.110;20.622;2023-03-03T06:35:18;3.65;;;1.65;;
58659;SDS011;44429;45.110;20.622;2023-03-03T06:37:44;1.30;;;0.57;;
58659;SDS011;44429;45.110;20.622;2023-03-03T06:40:11;4.10;;;1.17;;
58659;SDS011;44429;45.110;20.622;2023-03-03T06:42:37;7.18;;;2.78;;
58659;SDS011;44429;45.110;20.622;2023-03-03T06:45:03;1.70;;;0.95;;
58659;SDS011;44429;45.110;20.622;2023-03-03T06:47:29;4.78;;;1.40;;
58659;SDS011;44429;45.110;20.622;2023-03-03T06:49:56;3.45;;;1.55;;
58659;SDS011;44429;45.110;20.622;2023-03-03T06:52:23;20.15;;;2.75;;
58659;SDS011;44429;45.110;20.622;2023-03-03T06:54:49;12.73;;;4.38;;
58659;SDS011;44429;45.110;20.622;2023-03-03T06:57:28;12.57;;;4.43;;
58659;SDS011;44429;45.110;20.622;2023-03-03T06:59:56;3.47;;;1.90;;
58659;SDS011;44429;45.110;20.622;2023-03-03T07:02:22;6.22;;;1.88;;
58659;SDS011;44429;45.110;20.622;2023-03-03T07:04:49;2.63;;;1.65;;
58659;SDS011;44429;45.110;20.622;2023-03-03T07:07:16;4.03;;;1.38;;
58659;SDS011;44429;45.110;20.622;2023-03-03T07:09:43;5.03;;;2.05;;
58659;SDS011;44429;45.110;20.622;2023-03-03T07:12:11;4.85;;;1.70;;
58659;SDS011;44429;45.110;20.622;2023-03-03T07:14:41;12.05;;;2.30;;
58659;SDS011;44429;45.110;20.622;2023-03-03T07:17:09;6.57;;;2.15;;
58659;SDS011;44429;45.110;20.622;2023-03-03T07:19:38;3.35;;;1.20;;
58659;SDS011;44429;45.110;20.622;2023-03-03T07:22:15;1.55;;;0.47;;
58659;SDS011;44429;45.110;20.622;2023-03-03T07:24:42;8.05;;;1.77;;
58659;SDS011;44429;45.110;20.622;2023-03-03T07:27:13;6.85;;;2.40;;
58659;SDS011;44429;45.110;20.622;2023-03-03T07:29:42;3.97;;;1.85;;
58659;SDS011;44429;45.110;20.622;2023-03-03T07:32:14;8.18;;;1.45;;
58659;SDS011;44429;45.110;20.622;2023-03-03T07:34:47;2.67;;;0.93;;
58659;SDS011;44429;45.110;20.622;2023-03-03T07:37:17;3.05;;;1.30;;
58659;SDS011;44429;45.110;20.622;2023-03-03T07:39:46;7.88;;;2.05;;
58659;SDS011;44429;45.110;20.622;2023-03-03T07:42:26;7.93;;;1.73;;
58659;SDS011;44429;45.110;20.622;2023-03-03T07:44:57;4.10;;;1.15;;
58659;SDS011;44429;45.110;20.622;2023-03-03T07:47:27;8.07;;;1.77;;
58659;SDS011;44429;45.110;20.622;2023-03-03T07:49:55;6.75;;;1.23;;
58659;SDS011;44429;45.110;20.622;2023-03-03T07:52:23;12.63;;;1.38;;
58659;SDS011;44429;45.110;20.622;2023-03-03T07:54:50;2.00;;;0.85;;
58659;SDS011;44429;45.110;20.622;2023-03-03T07:57:21;1.65;;;0.95;;
58659;SDS011;44429;45.110;20.622;2023-03-03T08:02:29;1.75;;;0.82;;
58659;SDS011;44429;45.110;20.622;2023-03-03T08:04:57;3.17;;;1.50;;
58659;SDS011;44429;45.110;20.622;2023-03-03T08:07:24;0.95;;;0.82;;
58659;SDS011;44429;45.110;20.622;2023-03-03T08:09:59;4.35;;;0.82;;
58659;SDS011;44429;45.110;20.622;2023-03-03T08:12:27;2.50;;;1.45;;
58659;SDS011;44429;45.110;20.622;2023-03-03T08:14:55;9.70;;;1.45;;
58659;SDS011;44429;45.110;20.622;2023-03-03T08:17:23;1.75;;;1.13;;
58659;SDS011;44429;45.110;20.622;2023-03-03T08:19:50;6.15;;;1.30;;
58659;SDS011;44429;45.110;20.622;2023-03-03T08:22:18;3.35;;;1.17;;
58659;SDS011;44429;45.110;20.622;2023-03-03T08:24:44;1.92;;;0.95;;
58659;SDS011;44429;45.110;20.622;2023-03-03T08:27:10;2.38;;;1.08;;
58659;SDS011;44429;45.110;20.622;2023-03-03T08:29:36;7.43;;;2.28;;
58659;SDS011;44429;45.110;20.622;2023-03-03T08:32:02;4.28;;;1.35;;
58659;SDS011;44429;45.110;20.622;2023-03-03T08:34:28;2.28;;;0.95;;
58659;SDS011;44429;45.110;20.622;2023-03-03T08:36:54;2.60;;;1.10;;
58659;SDS011;44429;45.110;20.622;2023-03-03T08:39:22;2.15;;;1.05;;
58659;SDS011;44429;45.110;20.622;2023-03-03T08:41:48;9.48;;;1.80;;
58659;SDS011;44429;45.110;20.622;2023-03-03T08:44:14;2.53;;;0.95;;
58659;SDS011;44429;45.110;20.622;2023-03-03T08:46:40;2.75;;;1.30;;
58659;SDS011;44429;45.110;20.622;2023-03-03T08:49:08;0.95;;;0.47;;
58659;SDS011;44429;45.110;20.622;2023-03-03T08:51:34;2.53;;;1.38;;
58659;SDS011;44429;45.110;20.622;2023-03-03T08:54:00;2.55;;;0.90;;
58659;SDS011;44429;45.110;20.622;2023-03-03T08:56:26;1.85;;;0.85;;
58659;SDS011;44429;45.110;20.622;2023-03-03T08:58:52;2.53;;;0.98;;
58659;SDS011;44429;45.110;20.622;2023-03-03T09:01:18;4.35;;;1.17;;
58659;SDS011;44429;45.110;20.622;2023-03-03T09:03:44;1.55;;;0.80;;
58659;SDS011;44429;45.110;20.622;2023-03-03T09:06:10;2.45;;;1.05;;
58659;SDS011;44429;45.110;20.622;2023-03-03T09:08:36;8.07;;;2.38;;
58659;SDS011;44429;45.110;20.622;2023-03-03T09:11:08;7.53;;;2.53;;
58659;SDS011;44429;45.110;20.622;2023-03-03T09:13:34;3.10;;;1.35;;
58659;SDS011;44429;45.110;20.622;2023-03-03T09:16:00;2.75;;;1.50;;
58659;SDS011;44429;45.110;20.622;2023-03-03T09:18:36;3.90;;;0.85;;
58659;SDS011;44429;45.110;20.622;2023-03-03T09:21:15;2.47;;;1.30;;
58659;SDS011;44429;45.110;20.622;2023-03-03T09:23:42;2.67;;;1.73;;
58659;SDS011;44429;45.110;20.622;2023-03-03T09:26:23;2.42;;;1.13;;
58659;SDS011;44429;45.110;20.622;2023-03-03T09:31:39;1.90;;;1.08;;
58659;SDS011;44429;45.110;20.622;2023-03-03T09:34:15;1.85;;;0.73;;
58659;SDS011;44429;45.110;20.622;2023-03-03T09:36:43;2.45;;;0.90;;
58659;SDS011;44429;45.110;20.622;2023-03-03T09:39:12;1.70;;;0.75;;
58659;SDS011;44429;45.110;20.622;2023-03-03T09:49:16;7.10;;;1.40;;
58659;SDS011;44429;45.110;20.622;2023-03-03T09:52:01;1.77;;;0.95;;
58659;SDS011;44429;45.110;20.622;2023-03-03T09:57:15;8.52;;;2.25;;
58659;SDS011;44429;45.110;20.622;2023-03-03T09:59:58;7.35;;;1.23;;
58659;SDS011;44429;45.110;20.622;2023-03-03T10:05:16;1.77;;;0.57;;
58659;SDS011;44429;45.110;20.622;2023-03-03T10:10:15;3.22;;;1.00;;
58659;SDS011;44429;45.110;20.622;2023-03-03T10:26:05;3.65;;;1.38;;
58659;SDS011;44429;45.110;20.622;2023-03-03T10:31:30;2.22;;;0.73;;
58659;SDS011;44429;45.110;20.622;2023-03-03T10:34:02;2.83;;;0.93;;
58659;SDS011;44429;45.110;20.622;2023-03-03T10:39:24;3.63;;;1.48;;
58659;SDS011;44429;45.110;20.622;2023-03-03T10:45:05;5.03;;;1.33;;
58659;SDS011;44429;45.110;20.622;2023-03-03T10:52:37;3.20;;;0.73;;
58659;SDS011;44429;45.110;20.622;2023-03-03T11:01:28;2.65;;;1.13;;
58659;SDS011;44429;45.110;20.622;2023-03-03T11:06:32;2.70;;;1.10;;
58659;SDS011;44429;45.110;20.622;2023-03-03T11:09:08;2.13;;;0.77;;
58659;SDS011;44429;45.110;20.622;2023-03-03T11:11:42;2.10;;;0.80;;
58659;SDS011;44429;45.110;20.622;2023-03-03T11:19:28;1.63;;;0.68;;
58659;SDS011;44429;45.110;20.622;2023-03-03T11:37:34;1.02;;;0.40;;
58659;SDS011;44429;45.110;20.622;2023-03-03T11:40:08;1.80;;;0.75;;
58659;SDS011;44429;45.110;20.622;2023-03-03T11:45:23;0.93;;;0.50;;
58659;SDS011;44429;45.110;20.622;2023-03-03T11:50:23;1.85;;;1.17;;
58659;SDS011;44429;45.110;20.622;2023-03-03T11:52:54;10.70;;;1.60;;
58659;SDS011;44429;45.110;20.622;2023-03-03T12:05:41;1.58;;;0.68;;
58659;SDS011;44429;45.110;20.622;2023-03-03T12:08:54;0.30;;;0.22;;
58659;SDS011;44429;45.110;20.622;2023-03-03T12:21:14;4.57;;;1.95;;
58659;SDS011;44429;45.110;20.622;2023-03-03T12:29:06;1.95;;;0.73;;
58659;SDS011;44429;45.110;20.622;2023-03-03T12:39:21;9.45;;;1.02;;
58659;SDS011;44429;45.110;20.622;2023-03-03T12:46:55;1.75;;;0.98;;
58659;SDS011;44429;45.110;20.622;2023-03-03T12:49:26;4.30;;;1.88;;
58659;SDS011;44429;45.110;20.622;2023-03-03T13:10:46;2.67;;;1.13;;
58659;SDS011;44429;45.110;20.622;2023-03-03T13:13:17;1.67;;;0.80;;
58659;SDS011;44429;45.110;20.622;2023-03-03T13:18:24;1.63;;;0.77;;
58659;SDS011;44429;45.110;20.622;2023-03-03T13:28:47;2.85;;;1.17;;
58659;SDS011;44429;45.110;20.622;2023-03-03T13:31:20;1.67;;;1.27;;
58659;SDS011;44429;45.110;20.622;2023-03-03T13:33:55;2.97;;;1.38;;
58659;SDS011;44429;45.110;20.622;2023-03-03T13:36:27;0.80;;;0.38;;
58659;SDS011;44429;45.110;20.622;2023-03-03T13:41:47;0.80;;;0.20;;
58659;SDS011;44429;45.110;20.622;2023-03-03T13:44:35;1.50;;;0.93;;
58659;SDS011;44429;45.110;20.622;2023-03-03T13:49:59;0.90;;;0.40;;
58659;SDS011;44429;45.110;20.622;2023-03-03T13:52:30;4.80;;;0.95;;
58659;SDS011;44429;45.110;20.622;2023-03-03T14:05:13;2.58;;;0.52;;
58659;SDS011;44429;45.110;20.622;2023-03-03T14:07:43;4.57;;;0.63;;
58659;SDS011;44429;45.110;20.622;2023-03-03T14:10:16;1.58;;;0.50;;
58659;SDS011;44429;45.110;20.622;2023-03-03T14:15:28;1.92;;;0.68;;
58659;SDS011;44429;45.110;20.622;2023-03-03T14:18:04;4.70;;;1.65;;
58659;SDS011;44429;45.110;20.622;2023-03-03T14:20:33;1.15;;;0.50;;
58659;SDS011;44429;45.110;20.622;2023-03-03T14:23:01;7.57;;;1.75;;
58659;SDS011;44429;45.110;20.622;2023-03-03T14:25:48;0.85;;;0.50;;
58659;SDS011;44429;45.110;20.622;2023-03-03T14:28:13;2.38;;;1.15;;
58659;SDS011;44429;45.110;20.622;2023-03-03T14:30:41;3.15;;;1.27;;
58659;SDS011;44429;45.110;20.622;2023-03-03T14:35:34;2.67;;;0.85;;
58659;SDS011;44429;45.110;20.622;2023-03-03T14:38:02;0.77;;;0.45;;
58659;SDS011;44429;45.110;20.622;2023-03-03T14:40:31;4.03;;;0.57;;
58659;SDS011;44429;45.110;20.622;2023-03-03T14:42:58;3.38;;;0.75;;
58659;SDS011;44429;45.110;20.622;2023-03-03T14:45:30;4.93;;;0.80;;
58659;SDS011;44429;45.110;20.622;2023-03-03T14:47:57;2.40;;;1.20;;
58659;SDS011;44429;45.110;20.622;2023-03-03T14:50:31;1.13;;;0.47;;
58659;SDS011;44429;45.110;20.622;2023-03-03T14:53:06;0.98;;;0.50;;
58659;SDS011;44429;45.110;20.622;2023-03-03T14:55:34;1.75;;;0.63;;
58659;SDS011;44429;45.110;20.622;2023-03-03T14:58:02;0.85;;;0.55;;
58659;SDS011;44429;45.110;20.622;2023-03-03T15:00:29;2.90;;;1.08;;
58659;SDS011;44429;45.110;20.622;2023-03-03T15:05:47;2.13;;;0.88;;
58659;SDS011;44429;45.110;20.622;2023-03-03T15:08:14;2.20;;;1.33;;
58659;SDS011;44429;45.110;20.622;2023-03-03T15:10:44;2.10;;;1.00;;
58659;SDS011;44429;45.110;20.622;2023-03-03T15:18:24;3.70;;;1.58;;
58659;SDS011;44429;45.110;20.622;2023-03-03T15:23:43;7.78;;;2.15;;
58659;SDS011;44429;45.110;20.622;2023-03-03T15:45:25;10.23;;;4.15;;
58659;SDS011;44429;45.110;20.622;2023-03-03T15:52:35;12.75;;;3.78;;
58659;SDS011;44429;45.110;20.622;2023-03-03T15:55:19;3.97;;;2.25;;
58659;SDS011;44429;45.110;20.622;2023-03-03T16:12:54;8.02;;;2.30;;
58659;SDS011;44429;45.110;20.622;2023-03-03T16:17:58;2.80;;;1.20;;
58659;SDS011;44429;45.110;20.622;2023-03-03T16:20:32;6.75;;;2.03;;
58659;SDS011;44429;45.110;20.622;2023-03-03T16:26:03;13.30;;;4.38;;
58659;SDS011;44429;45.110;20.622;2023-03-03T16:31:27;7.10;;;3.67;;
58659;SDS011;44429;45.110;20.622;2023-03-03T16:33:56;8.48;;;2.22;;
58659;SDS011;44429;45.110;20.622;2023-03-03T16:39:02;6.80;;;3.47;;
58659;SDS011;44429;45.110;20.622;2023-03-03T16:49:19;9.48;;;2.28;;
58659;SDS011;44429;45.110;20.622;2023-03-03T16:52:02;16.98;;;3.35;;
58659;SDS011;44429;45.110;20.622;2023-03-03T16:54:34;10.35;;;3.25;;
58659;SDS011;44429;45.110;20.622;2023-03-03T17:04:44;16.55;;;4.97;;
58659;SDS011;44429;45.110;20.622;2023-03-03T17:07:14;8.02;;;2.67;;
58659;SDS011;44429;45.110;20.622;2023-03-03T17:12:36;16.75;;;4.10;;
58659;SDS011;44429;45.110;20.622;2023-03-03T17:18:00;14.35;;;5.90;;
58659;SDS011;44429;45.110;20.622;2023-03-03T17:28:11;10.52;;;3.30;;
58659;SDS011;44429;45.110;20.622;2023-03-03T17:44:01;3.00;;;1.52;;
58659;SDS011;44429;45.110;20.622;2023-03-03T17:56:32;6.78;;;2.25;;
58659;SDS011;44429;45.110;20.622;2023-03-03T17:59:07;6.68;;;1.92;;
58659;SDS011;44429;45.110;20.622;2023-03-03T18:04:28;6.70;;;2.00;;
58659;SDS011;44429;45.110;20.622;2023-03-03T18:11:58;3.22;;;1.67;;
58659;SDS011;44429;45.110;20.622;2023-03-03T18:19:30;7.90;;;2.28;;
58659;SDS011;44429;45.110;20.622;2023-03-03T18:24:29;10.48;;;3.83;;
58659;SDS011;44429;45.110;20.622;2023-03-03T18:30:02;15.02;;;4.53;;
58659;SDS011;44429;45.110;20.622;2023-03-03T18:32:39;26.27;;;5.60;;
58659;SDS011;44429;45.110;20.622;2023-03-03T18:37:50;10.60;;;3.67;;
58659;SDS011;44429;45.110;20.622;2023-03-03T18:40:32;7.80;;;3.92;;
58659;SDS011;44429;45.110;20.622;2023-03-03T18:43:25;10.75;;;2.65;;
58659;SDS011;44429;45.110;20.622;2023-03-03T18:45:46;5.55;;;1.73;;
58659;SDS011;44429;45.110;20.622;2023-03-03T18:48:12;7.80;;;2.72;;
58659;SDS011;44429;45.110;20.622;2023-03-03T18:50:40;4.32;;;1.88;;
58659;SDS011;44429;45.110;20.622;2023-03-03T18:53:09;8.35;;;2.55;;
58659;SDS011;44429;45.110;20.622;2023-03-03T18:55:56;21.17;;;5.28;;
58659;SDS011;44429;45.110;20.622;2023-03-03T19:00:59;8.20;;;3.22;;
58659;SDS011;44429;45.110;20.622;2023-03-03T19:05:58;5.93;;;2.22;;
58659;SDS011;44429;45.110;20.622;2023-03-03T19:11:35;18.70;;;5.72;;
58659;SDS011;44429;45.110;20.622;2023-03-03T19:17:40;7.40;;;2.85;;
58659;SDS011;44429;45.110;20.622;2023-03-03T19:22:30;13.43;;;4.47;;
58659;SDS011;44429;45.110;20.622;2023-03-03T19:27:38;21.05;;;5.05;;
58659;SDS011;44429;45.110;20.622;2023-03-03T19:33:10;14.02;;;5.55;;
58659;SDS011;44429;45.110;20.622;2023-03-03T19:35:29;7.45;;;3.38;;
58659;SDS011;44429;45.110;20.622;2023-03-03T19:56:39;3.97;;;2.05;;
58659;SDS011;44429;45.110;20.622;2023-03-03T20:14:54;4.40;;;2.58;;
58659;SDS011;44429;45.110;20.622;2023-03-03T20:20:00;7.40;;;3.38;;
58659;SDS011;44429;45.110;20.622;2023-03-03T20:32:51;3.13;;;1.75;;
58659;SDS011;44429;45.110;20.622;2023-03-03T20:40:52;10.63;;;2.38;;
58659;SDS011;44429;45.110;20.622;2023-03-03T20:43:38;4.53;;;2.30;;
58659;SDS011;44429;45.110;20.622;2023-03-03T20:46:28;6.78;;;1.45;;
58659;SDS011;44429;45.110;20.622;2023-03-03T20:54:16;3.42;;;1.92;;
58659;SDS011;44429;45.110;20.622;2023-03-03T21:04:15;7.00;;;1.73;;
58659;SDS011;44429;45.110;20.622;2023-03-03T21:06:41;3.15;;;1.83;;
58659;SDS011;44429;45.110;20.622;2023-03-03T21:09:07;6.68;;;1.80;;
58659;SDS011;44429;45.110;20.622;2023-03-03T21:11:46;5.75;;;3.58;;
58659;SDS011;44429;45.110;20.622;2023-03-03T21:14:19;4.30;;;2.78;;
58659;SDS011;44429;45.110;20.622;2023-03-03T21:16:46;11.75;;;1.98;;
58659;SDS011;44429;45.110;20.622;2023-03-03T21:19:21;2.42;;;0.80;;
58659;SDS011;44429;45.110;20.622;2023-03-03T21:21:47;7.32;;;2.30;;
58659;SDS011;44429;45.110;20.622;2023-03-03T21:24:14;4.57;;;2.28;;
58659;SDS011;44429;45.110;20.622;2023-03-03T21:26:59;4.53;;;2.63;;
58659;SDS011;44429;45.110;20.622;2023-03-03T21:29:29;13.20;;;2.80;;
58659;SDS011;44429;45.110;20.622;2023-03-03T21:31:57;3.50;;;1.67;;
58659;SDS011;44429;45.110;20.622;2023-03-03T21:34:31;4.95;;;1.85;;
58659;SDS011;44429;45.110;20.622;2023-03-03T21:36:58;2.45;;;1.30;;